sensor_id;sensor_type;location;lat;lon;timestamp;temperature;humidity
3994;DHT22;2011;48.238;13.948;2022-11-18T00:01:39;6.60;99.90
3994;DHT22;2011;48.238;13.948;2022-11-18T00:04:06;6.60;99.90
3994;DHT22;2011;48.238;13.948;2022-11-18T00:06:33;6.60;99.90
3994;DHT22;2011;48.238;13.948;2022-11-18T00:08:59;6.60;99.90
3994;DHT22;2011;48.238;13.948;2022-11-18T00:11:27;6.60;99.90
3994;DHT22;2011;48.238;13.948;2022-11-18T00:14:14;6.60;99.90
3994;DHT22;2011;48.238;13.948;2022-11-18T00:16:45;6.50;99.90
3994;DHT22;2011;48.238;13.948;2022-11-18T00:19:13;6.50;99.90
3994;DHT22;2011;48.238;13.948;2022-11-18T00:21:40;6.50;99.90
3994;DHT22;2011;48.238;13.948;2022-11-18T00:24:07;6.50;99.90
3994;DHT22;2011;48.238;13.948;2022-11-18T00:26:34;6.50;99.90
3994;DHT22;2011;48.238;13.948;2022-11-18T00:29:02;6.50;99.90
3994;DHT22;2011;48.238;13.948;2022-11-18T00:31:30;6.50;99.90
3994;DHT22;2011;48.238;13.948;2022-11-18T00:33:57;6.50;99.90
3994;DHT22;2011;48.238;13.948;2022-11-18T00:36:24;6.50;99.90
3994;DHT22;2011;48.238;13.948;2022-11-18T00:38:50;6.50;99.90
3994;DHT22;2011;48.238;13.948;2022-11-18T00:41:17;6.50;99.90
3994;DHT22;2011;48.238;13.948;2022-11-18T00:43:44;6.50;99.90
3994;DHT22;2011;48.238;13.948;2022-11-18T00:46:11;6.50;99.90
3994;DHT22;2011;48.238;13.948;2022-11-18T00:48:40;6.50;99.90
3994;DHT22;2011;48.238;13.948;2022-11-18T00:51:09;6.40;99.90
3994;DHT22;2011;48.238;13.948;2022-11-18T00:53:36;6.50;99.90
3994;DHT22;2011;48.238;13.948;2022-11-18T00:56:03;6.40;99.90
3994;DHT22;2011;48.238;13.948;2022-11-18T00:58:31;6.40;99.90
3994;DHT22;2011;48.238;13.948;2022-11-18T01:00:58;6.30;99.90
3994;DHT22;2011;48.238;13.948;2022-11-18T01:03:26;6.40;99.90
3994;DHT22;2011;48.238;13.948;2022-11-18T01:05:55;6.40;99.90
3994;DHT22;2011;48.238;13.948;2022-11-18T01:08:22;6.40;99.90
3994;DHT22;2011;48.238;13.948;2022-11-18T01:10:49;6.50;99.90
3994;DHT22;2011;48.238;13.948;2022-11-18T01:13:18;6.50;99.90
3994;DHT22;2011;48.238;13.948;2022-11-18T01:15:47;6.50;99.90
3994;DHT22;2011;48.238;13.948;2022-11-18T01:18:14;6.50;99.90
3994;DHT22;2011;48.238;13.948;2022-11-18T01:20:42;6.50;99.90
3994;DHT22;2011;48.238;13.948;2022-11-18T01:23:10;6.50;99.90
3994;DHT22;2011;48.238;13.948;2022-11-18T01:25:38;6.50;99.90
3994;DHT22;2011;48.238;13.948;2022-11-18T01:28:06;6.30;99.90
3994;DHT22;2011;48.238;13.948;2022-11-18T01:30:34;6.10;99.90
3994;DHT22;2011;48.238;13.948;2022-11-18T01:33:01;6.10;99.90
3994;DHT22;2011;48.238;13.948;2022-11-18T01:35:28;6.00;99.90
3994;DHT22;2011;48.238;13.948;2022-11-18T01:37:55;6.10;99.90
3994;DHT22;2011;48.238;13.948;2022-11-18T01:40:26;6.10;99.90
3994;DHT22;2011;48.238;13.948;2022-11-18T01:42:53;6.20;99.90
3994;DHT22;2011;48.238;13.948;2022-11-18T01:45:25;6.30;99.90
3994;DHT22;2011;48.238;13.948;2022-11-18T01:47:58;6.30;99.90
3994;DHT22;2011;48.238;13.948;2022-11-18T01:50:26;6.40;99.90
3994;DHT22;2011;48.238;13.948;2022-11-18T01:52:56;6.40;99.90
3994;DHT22;2011;48.238;13.948;2022-11-18T01:55:30;6.50;99.90
3994;DHT22;2011;48.238;13.948;2022-11-18T01:58:05;6.50;99.90
3994;DHT22;2011;48.238;13.948;2022-11-18T02:00:33;6.60;99.90
3994;DHT22;2011;48.238;13.948;2022-11-18T02:03:01;6.60;99.90
3994;DHT22;2011;48.238;13.948;2022-11-18T02:05:29;6.60;99.90
3994;DHT22;2011;48.238;13.948;2022-11-18T02:07:57;6.60;99.90
3994;DHT22;2011;48.238;13.948;2022-11-18T02:10:26;6.60;99.90
3994;DHT22;2011;48.238;13.948;2022-11-18T02:12:54;6.60;99.90
3994;DHT22;2011;48.238;13.948;2022-11-18T02:15:28;6.60;99.90
3994;DHT22;2011;48.238;13.948;2022-11-18T02:18:05;6.70;99.90
3994;DHT22;2011;48.238;13.948;2022-11-18T02:20:38;6.60;99.90
3994;DHT22;2011;48.238;13.948;2022-11-18T02:23:43;6.60;99.90
3994;DHT22;2011;48.238;13.948;2022-11-18T02:29:34;6.60;99.90
3994;DHT22;2011;48.238;13.948;2022-11-18T02:32:05;6.60;99.90
3994;DHT22;2011;48.238;13.948;2022-11-18T02:34:39;6.60;99.90
3994;DHT22;2011;48.238;13.948;2022-11-18T02:37:15;6.70;99.90
3994;DHT22;2011;48.238;13.948;2022-11-18T02:39:46;6.70;99.90
3994;DHT22;2011;48.238;13.948;2022-11-18T02:42:16;6.70;99.90
3994;DHT22;2011;48.238;13.948;2022-11-18T02:44:48;6.70;99.90
3994;DHT22;2011;48.238;13.948;2022-11-18T02:47:16;6.70;99.90
3994;DHT22;2011;48.238;13.948;2022-11-18T02:49:48;6.70;99.90
3994;DHT22;2011;48.238;13.948;2022-11-18T02:52:16;6.70;99.90
3994;DHT22;2011;48.238;13.948;2022-11-18T02:54:46;6.70;99.90
3994;DHT22;2011;48.238;13.948;2022-11-18T02:57:15;6.70;99.90
3994;DHT22;2011;48.238;13.948;2022-11-18T02:59:44;6.80;99.90
3994;DHT22;2011;48.238;13.948;2022-11-18T03:02:14;6.80;99.90
3994;DHT22;2011;48.238;13.948;2022-11-18T03:04:42;6.80;99.90
3994;DHT22;2011;48.238;13.948;2022-11-18T03:07:13;6.80;99.90
3994;DHT22;2011;48.238;13.948;2022-11-18T03:09:45;6.70;99.90
3994;DHT22;2011;48.238;13.948;2022-11-18T03:12:18;6.70;99.90
3994;DHT22;2011;48.238;13.948;2022-11-18T03:14:56;6.70;99.90
3994;DHT22;2011;48.238;13.948;2022-11-18T03:17:33;6.70;99.90
3994;DHT22;2011;48.238;13.948;2022-11-18T03:20:10;6.70;99.90
3994;DHT22;2011;48.238;13.948;2022-11-18T03:22:40;6.70;99.90
3994;DHT22;2011;48.238;13.948;2022-11-18T03:25:12;6.70;99.90
3994;DHT22;2011;48.238;13.948;2022-11-18T03:27:46;6.70;99.90
3994;DHT22;2011;48.238;13.948;2022-11-18T03:30:19;6.70;99.90
3994;DHT22;2011;48.238;13.948;2022-11-18T03:32:51;6.60;99.90
3994;DHT22;2011;48.238;13.948;2022-11-18T03:35:23;6.60;99.90
3994;DHT22;2011;48.238;13.948;2022-11-18T03:37:55;6.60;99.90
3994;DHT22;2011;48.238;13.948;2022-11-18T03:40:26;6.60;99.90
3994;DHT22;2011;48.238;13.948;2022-11-18T03:42:58;6.60;99.90
3994;DHT22;2011;48.238;13.948;2022-11-18T03:45:30;6.60;99.90
3994;DHT22;2011;48.238;13.948;2022-11-18T03:48:04;6.70;99.90
3994;DHT22;2011;48.238;13.948;2022-11-18T03:50:38;6.70;99.90
3994;DHT22;2011;48.238;13.948;2022-11-18T03:53:06;6.70;99.90
3994;DHT22;2011;48.238;13.948;2022-11-18T03:55:38;6.70;99.90
3994;DHT22;2011;48.238;13.948;2022-11-18T03:58:09;6.70;99.90
3994;DHT22;2011;48.238;13.948;2022-11-18T04:00:43;6.70;99.90
3994;DHT22;2011;48.238;13.948;2022-11-18T04:03:10;6.80;99.90
3994;DHT22;2011;48.238;13.948;2022-11-18T04:05:40;6.80;99.90
3994;DHT22;2011;48.238;13.948;2022-11-18T04:08:10;6.80;99.90
3994;DHT22;2011;48.238;13.948;2022-11-18T04:10:42;6.70;99.90
3994;DHT22;2011;48.238;13.948;2022-11-18T04:13:15;6.70;99.90
3994;DHT22;2011;48.238;13.948;2022-11-18T04:15:45;6.70;99.90
3994;DHT22;2011;48.238;13.948;2022-11-18T04:18:12;6.70;99.90
3994;DHT22;2011;48.238;13.948;2022-11-18T04:20:38;6.70;99.90
3994;DHT22;2011;48.238;13.948;2022-11-18T04:23:06;6.70;99.90
3994;DHT22;2011;48.238;13.948;2022-11-18T04:25:34;6.70;99.90
3994;DHT22;2011;48.238;13.948;2022-11-18T04:28:00;6.70;99.90
3994;DHT22;2011;48.238;13.948;2022-11-18T04:30:27;6.70;99.90
3994;DHT22;2011;48.238;13.948;2022-11-18T04:32:56;6.60;99.90
3994;DHT22;2011;48.238;13.948;2022-11-18T04:35:23;6.70;99.90
3994;DHT22;2011;48.238;13.948;2022-11-18T04:37:50;6.60;99.90
3994;DHT22;2011;48.238;13.948;2022-11-18T04:40:17;6.60;99.90
3994;DHT22;2011;48.238;13.948;2022-11-18T04:42:44;6.60;99.90
3994;DHT22;2011;48.238;13.948;2022-11-18T04:45:11;6.50;99.90
3994;DHT22;2011;48.238;13.948;2022-11-18T04:47:38;6.60;99.90
3994;DHT22;2011;48.238;13.948;2022-11-18T04:50:07;6.60;99.90
3994;DHT22;2011;48.238;13.948;2022-11-18T04:52:34;6.60;99.90
3994;DHT22;2011;48.238;13.948;2022-11-18T04:55:01;6.60;99.90
3994;DHT22;2011;48.238;13.948;2022-11-18T04:57:28;6.60;99.90
3994;DHT22;2011;48.238;13.948;2022-11-18T04:59:54;6.60;99.90
3994;DHT22;2011;48.238;13.948;2022-11-18T05:02:21;6.60;99.90
3994;DHT22;2011;48.238;13.948;2022-11-18T05:04:48;6.60;99.90
3994;DHT22;2011;48.238;13.948;2022-11-18T05:07:16;6.60;99.90
3994;DHT22;2011;48.238;13.948;2022-11-18T05:09:43;6.70;99.90
3994;DHT22;2011;48.238;13.948;2022-11-18T05:12:11;6.70;99.90
3994;DHT22;2011;48.238;13.948;2022-11-18T05:14:56;6.70;99.90
3994;DHT22;2011;48.238;13.948;2022-11-18T05:17:23;6.70;99.90
3994;DHT22;2011;48.238;13.948;2022-11-18T05:19:50;6.70;99.90
3994;DHT22;2011;48.238;13.948;2022-11-18T05:22:19;6.70;99.90
3994;DHT22;2011;48.238;13.948;2022-11-18T05:24:46;6.70;99.90
3994;DHT22;2011;48.238;13.948;2022-11-18T05:27:13;6.80;99.90
3994;DHT22;2011;48.238;13.948;2022-11-18T05:29:40;6.80;99.90
3994;DHT22;2011;48.238;13.948;2022-11-18T05:32:07;6.80;99.90
3994;DHT22;2011;48.238;13.948;2022-11-18T05:34:34;6.70;99.90
3994;DHT22;2011;48.238;13.948;2022-11-18T05:37:01;6.80;99.90
3994;DHT22;2011;48.238;13.948;2022-11-18T05:39:30;6.80;99.90
3994;DHT22;2011;48.238;13.948;2022-11-18T05:41:57;6.80;99.90
3994;DHT22;2011;48.238;13.948;2022-11-18T05:44:41;6.80;99.90
3994;DHT22;2011;48.238;13.948;2022-11-18T05:47:08;6.80;99.90
3994;DHT22;2011;48.238;13.948;2022-11-18T05:49:35;6.80;99.90
3994;DHT22;2011;48.238;13.948;2022-11-18T05:52:03;6.80;99.90
3994;DHT22;2011;48.238;13.948;2022-11-18T05:54:31;6.80;99.90
3994;DHT22;2011;48.238;13.948;2022-11-18T05:56:58;6.80;99.90
3994;DHT22;2011;48.238;13.948;2022-11-18T05:59:25;6.80;99.90
3994;DHT22;2011;48.238;13.948;2022-11-18T06:01:56;6.80;99.90
3994;DHT22;2011;48.238;13.948;2022-11-18T06:04:27;6.80;99.90
3994;DHT22;2011;48.238;13.948;2022-11-18T06:06:58;6.80;99.90
3994;DHT22;2011;48.238;13.948;2022-11-18T06:09:32;6.80;99.90
3994;DHT22;2011;48.238;13.948;2022-11-18T06:12:02;6.80;99.90
3994;DHT22;2011;48.238;13.948;2022-11-18T06:14:34;6.80;99.90
3994;DHT22;2011;48.238;13.948;2022-11-18T06:17:04;6.80;99.90
3994;DHT22;2011;48.238;13.948;2022-11-18T06:19:34;6.80;99.90
3994;DHT22;2011;48.238;13.948;2022-11-18T06:22:02;6.80;99.90
3994;DHT22;2011;48.238;13.948;2022-11-18T06:24:30;6.80;99.90
3994;DHT22;2011;48.238;13.948;2022-11-18T06:26:58;6.80;99.90
3994;DHT22;2011;48.238;13.948;2022-11-18T06:29:26;6.80;99.90
3994;DHT22;2011;48.238;13.948;2022-11-18T06:31:53;6.80;99.90
3994;DHT22;2011;48.238;13.948;2022-11-18T06:34:20;6.80;99.90
3994;DHT22;2011;48.238;13.948;2022-11-18T06:36:47;6.80;99.90
3994;DHT22;2011;48.238;13.948;2022-11-18T06:39:14;6.90;99.90
3994;DHT22;2011;48.238;13.948;2022-11-18T06:41:41;6.90;99.90
3994;DHT22;2011;48.238;13.948;2022-11-18T06:44:12;6.90;99.90
3994;DHT22;2011;48.238;13.948;2022-11-18T06:46:38;6.80;99.90
3994;DHT22;2011;48.238;13.948;2022-11-18T06:49:25;6.90;99.90
3994;DHT22;2011;48.238;13.948;2022-11-18T06:51:52;6.90;99.90
3994;DHT22;2011;48.238;13.948;2022-11-18T06:54:19;6.90;99.90
3994;DHT22;2011;48.238;13.948;2022-11-18T06:56:46;6.90;99.90
3994;DHT22;2011;48.238;13.948;2022-11-18T06:59:15;6.80;99.90
3994;DHT22;2011;48.238;13.948;2022-11-18T07:01:48;6.80;99.90
3994;DHT22;2011;48.238;13.948;2022-11-18T07:04:14;6.80;99.90
3994;DHT22;2011;48.238;13.948;2022-11-18T07:06:41;6.80;99.90
3994;DHT22;2011;48.238;13.948;2022-11-18T07:09:08;6.80;99.90
3994;DHT22;2011;48.238;13.948;2022-11-18T07:11:35;6.90;99.90
3994;DHT22;2011;48.238;13.948;2022-11-18T07:14:05;6.90;99.90
3994;DHT22;2011;48.238;13.948;2022-11-18T07:16:34;6.90;99.90
3994;DHT22;2011;48.238;13.948;2022-11-18T07:19:07;6.90;99.90
3994;DHT22;2011;48.238;13.948;2022-11-18T07:21:36;6.90;99.90
3994;DHT22;2011;48.238;13.948;2022-11-18T07:24:05;6.90;99.90
3994;DHT22;2011;48.238;13.948;2022-11-18T07:26:32;6.90;99.90
3994;DHT22;2011;48.238;13.948;2022-11-18T07:28:59;6.90;99.90
3994;DHT22;2011;48.238;13.948;2022-11-18T07:31:26;7.00;99.90
3994;DHT22;2011;48.238;13.948;2022-11-18T07:33:55;7.00;99.90
3994;DHT22;2011;48.238;13.948;2022-11-18T07:36:24;7.00;99.90
3994;DHT22;2011;48.238;13.948;2022-11-18T07:38:51;7.00;99.90
3994;DHT22;2011;48.238;13.948;2022-11-18T07:41:19;7.00;99.90
3994;DHT22;2011;48.238;13.948;2022-11-18T07:43:47;7.00;99.90
3994;DHT22;2011;48.238;13.948;2022-11-18T07:46:16;7.00;99.90
3994;DHT22;2011;48.238;13.948;2022-11-18T07:48:45;7.00;99.90
3994;DHT22;2011;48.238;13.948;2022-11-18T07:51:15;7.00;99.90
3994;DHT22;2011;48.238;13.948;2022-11-18T07:53:42;7.00;99.90
3994;DHT22;2011;48.238;13.948;2022-11-18T07:56:11;7.00;99.90
3994;DHT22;2011;48.238;13.948;2022-11-18T07:58:39;7.10;99.90
3994;DHT22;2011;48.238;13.948;2022-11-18T08:01:08;7.10;99.90
3994;DHT22;2011;48.238;13.948;2022-11-18T08:03:35;7.20;99.90
3994;DHT22;2011;48.238;13.948;2022-11-18T08:06:03;7.20;99.90
3994;DHT22;2011;48.238;13.948;2022-11-18T08:08:32;7.30;99.90
3994;DHT22;2011;48.238;13.948;2022-11-18T08:11:01;7.30;99.90
3994;DHT22;2011;48.238;13.948;2022-11-18T08:13:28;7.30;99.90
3994;DHT22;2011;48.238;13.948;2022-11-18T08:15:55;7.40;99.90
3994;DHT22;2011;48.238;13.948;2022-11-18T08:18:23;7.50;99.90
3994;DHT22;2011;48.238;13.948;2022-11-18T08:20:50;7.60;99.90
3994;DHT22;2011;48.238;13.948;2022-11-18T08:23:17;7.60;99.90
3994;DHT22;2011;48.238;13.948;2022-11-18T08:25:46;7.70;99.90
3994;DHT22;2011;48.238;13.948;2022-11-18T08:28:13;7.80;99.90
3994;DHT22;2011;48.238;13.948;2022-11-18T08:30:40;7.80;99.90
3994;DHT22;2011;48.238;13.948;2022-11-18T08:33:07;7.90;99.90
3994;DHT22;2011;48.238;13.948;2022-11-18T08:35:35;7.80;99.90
3994;DHT22;2011;48.238;13.948;2022-11-18T08:38:02;7.80;99.90
3994;DHT22;2011;48.238;13.948;2022-11-18T08:40:29;7.90;99.90
3994;DHT22;2011;48.238;13.948;2022-11-18T08:42:57;7.90;99.90
3994;DHT22;2011;48.238;13.948;2022-11-18T08:45:24;7.90;99.90
3994;DHT22;2011;48.238;13.948;2022-11-18T08:47:51;7.90;99.90
3994;DHT22;2011;48.238;13.948;2022-11-18T08:50:18;7.90;99.90
3994;DHT22;2011;48.238;13.948;2022-11-18T08:52:45;8.00;99.90
3994;DHT22;2011;48.238;13.948;2022-11-18T08:55:12;8.00;99.90
3994;DHT22;2011;48.238;13.948;2022-11-18T08:57:38;8.00;99.90
3994;DHT22;2011;48.238;13.948;2022-11-18T09:00:08;8.00;99.90
3994;DHT22;2011;48.238;13.948;2022-11-18T09:02:35;8.00;99.90
3994;DHT22;2011;48.238;13.948;2022-11-18T09:05:02;8.10;99.90
3994;DHT22;2011;48.238;13.948;2022-11-18T09:07:29;8.10;99.90
3994;DHT22;2011;48.238;13.948;2022-11-18T09:09:56;8.00;99.90
3994;DHT22;2011;48.238;13.948;2022-11-18T09:12:23;8.10;99.90
3994;DHT22;2011;48.238;13.948;2022-11-18T09:14:50;8.10;99.90
3994;DHT22;2011;48.238;13.948;2022-11-18T09:17:18;8.10;99.90
3994;DHT22;2011;48.238;13.948;2022-11-18T09:19:45;8.10;99.90
3994;DHT22;2011;48.238;13.948;2022-11-18T09:22:12;8.10;99.90
3994;DHT22;2011;48.238;13.948;2022-11-18T09:24:39;8.20;99.90
3994;DHT22;2011;48.238;13.948;2022-11-18T09:27:06;8.20;99.90
3994;DHT22;2011;48.238;13.948;2022-11-18T09:29:33;8.20;99.90
3994;DHT22;2011;48.238;13.948;2022-11-18T09:32:01;8.20;99.90
3994;DHT22;2011;48.238;13.948;2022-11-18T09:34:29;8.20;99.90
3994;DHT22;2011;48.238;13.948;2022-11-18T09:36:56;8.30;99.90
3994;DHT22;2011;48.238;13.948;2022-11-18T09:39:23;8.30;99.90
3994;DHT22;2011;48.238;13.948;2022-11-18T09:41:57;8.40;99.90
3994;DHT22;2011;48.238;13.948;2022-11-18T09:44:40;8.40;99.90
3994;DHT22;2011;48.238;13.948;2022-11-18T09:47:17;8.40;99.90
3994;DHT22;2011;48.238;13.948;2022-11-18T09:49:48;8.40;99.90
3994;DHT22;2011;48.238;13.948;2022-11-18T09:52:19;8.40;99.90
3994;DHT22;2011;48.238;13.948;2022-11-18T09:54:47;8.50;99.90
3994;DHT22;2011;48.238;13.948;2022-11-18T09:57:15;8.50;99.90
3994;DHT22;2011;48.238;13.948;2022-11-18T09:59:43;8.60;99.90
3994;DHT22;2011;48.238;13.948;2022-11-18T10:02:26;8.70;99.90
3994;DHT22;2011;48.238;13.948;2022-11-18T10:04:56;8.80;99.90
3994;DHT22;2011;48.238;13.948;2022-11-18T10:07:31;8.90;99.90
3994;DHT22;2011;48.238;13.948;2022-11-18T10:10:02;8.90;99.90
3994;DHT22;2011;48.238;13.948;2022-11-18T10:12:37;9.00;99.90
3994;DHT22;2011;48.238;13.948;2022-11-18T10:15:19;9.00;99.90
3994;DHT22;2011;48.238;13.948;2022-11-18T10:17:55;9.10;99.90
3994;DHT22;2011;48.238;13.948;2022-11-18T10:20:35;9.10;99.90
3994;DHT22;2011;48.238;13.948;2022-11-18T10:23:11;9.10;99.90
3994;DHT22;2011;48.238;13.948;2022-11-18T10:25:41;9.00;99.90
3994;DHT22;2011;48.238;13.948;2022-11-18T10:28:17;9.10;99.90
3994;DHT22;2011;48.238;13.948;2022-11-18T10:30:45;9.10;99.90
3994;DHT22;2011;48.238;13.948;2022-11-18T10:33:24;9.10;99.90
3994;DHT22;2011;48.238;13.948;2022-11-18T10:36:09;9.10;99.90
3994;DHT22;2011;48.238;13.948;2022-11-18T10:38:36;9.10;99.90
3994;DHT22;2011;48.238;13.948;2022-11-18T10:41:05;9.10;99.90
3994;DHT22;2011;48.238;13.948;2022-11-18T10:43:45;9.10;99.90
3994;DHT22;2011;48.238;13.948;2022-11-18T10:46:25;9.10;99.90
3994;DHT22;2011;48.238;13.948;2022-11-18T10:49:14;9.10;99.90
3994;DHT22;2011;48.238;13.948;2022-11-18T10:51:44;9.10;99.90
3994;DHT22;2011;48.238;13.948;2022-11-18T10:54:17;9.10;99.90
3994;DHT22;2011;48.238;13.948;2022-11-18T10:56:46;9.20;99.90
3994;DHT22;2011;48.238;13.948;2022-11-18T10:59:27;9.20;99.90
3994;DHT22;2011;48.238;13.948;2022-11-18T11:02:01;9.30;99.90
3994;DHT22;2011;48.238;13.948;2022-11-18T11:04:29;9.30;99.90
3994;DHT22;2011;48.238;13.948;2022-11-18T11:06:58;9.30;99.90
3994;DHT22;2011;48.238;13.948;2022-11-18T11:09:28;9.30;99.90
3994;DHT22;2011;48.238;13.948;2022-11-18T11:12:00;9.20;99.90
3994;DHT22;2011;48.238;13.948;2022-11-18T11:14:31;9.20;99.90
3994;DHT22;2011;48.238;13.948;2022-11-18T11:17:05;9.20;99.90
3994;DHT22;2011;48.238;13.948;2022-11-18T11:19:42;9.10;99.90
3994;DHT22;2011;48.238;13.948;2022-11-18T11:22:12;9.00;99.90
3994;DHT22;2011;48.238;13.948;2022-11-18T11:24:40;9.10;99.90
3994;DHT22;2011;48.238;13.948;2022-11-18T11:27:20;9.00;99.90
3994;DHT22;2011;48.238;13.948;2022-11-18T11:30:06;9.10;99.90
3994;DHT22;2011;48.238;13.948;2022-11-18T11:32:51;9.00;99.90
3994;DHT22;2011;48.238;13.948;2022-11-18T11:35:22;9.00;99.90
3994;DHT22;2011;48.238;13.948;2022-11-18T11:37:56;9.00;99.90
3994;DHT22;2011;48.238;13.948;2022-11-18T11:40:29;9.00;99.90
3994;DHT22;2011;48.238;13.948;2022-11-18T11:43:12;8.90;99.90
3994;DHT22;2011;48.238;13.948;2022-11-18T11:45:50;8.90;99.90
3994;DHT22;2011;48.238;13.948;2022-11-18T11:48:33;8.90;99.90
3994;DHT22;2011;48.238;13.948;2022-11-18T11:51:08;8.80;99.90
3994;DHT22;2011;48.238;13.948;2022-11-18T11:53:56;8.80;99.90
3994;DHT22;2011;48.238;13.948;2022-11-18T11:56:32;8.80;99.90
3994;DHT22;2011;48.238;13.948;2022-11-18T11:59:27;8.80;99.90
3994;DHT22;2011;48.238;13.948;2022-11-18T12:01:59;8.90;99.90
3994;DHT22;2011;48.238;13.948;2022-11-18T12:04:36;8.80;99.90
3994;DHT22;2011;48.238;13.948;2022-11-18T12:07:12;8.80;99.90
3994;DHT22;2011;48.238;13.948;2022-11-18T12:09:55;8.90;99.90
3994;DHT22;2011;48.238;13.948;2022-11-18T12:12:27;8.90;99.90
3994;DHT22;2011;48.238;13.948;2022-11-18T12:15:30;8.90;99.90
3994;DHT22;2011;48.238;13.948;2022-11-18T12:18:07;9.00;99.90
3994;DHT22;2011;48.238;13.948;2022-11-18T12:20:39;9.10;99.90
3994;DHT22;2011;48.238;13.948;2022-11-18T12:23:12;9.10;99.90
3994;DHT22;2011;48.238;13.948;2022-11-18T12:25:57;9.10;99.90
3994;DHT22;2011;48.238;13.948;2022-11-18T12:28:27;9.00;99.90
3994;DHT22;2011;48.238;13.948;2022-11-18T12:31:30;9.00;99.90
3994;DHT22;2011;48.238;13.948;2022-11-18T12:34:15;8.90;99.90
3994;DHT22;2011;48.238;13.948;2022-11-18T12:36:43;8.90;99.90
3994;DHT22;2011;48.238;13.948;2022-11-18T12:39:47;8.90;99.90
3994;DHT22;2011;48.238;13.948;2022-11-18T12:42:41;8.80;99.90
3994;DHT22;2011;48.238;13.948;2022-11-18T12:45:57;8.80;99.90
3994;DHT22;2011;48.238;13.948;2022-11-18T12:48:36;8.90;99.90
3994;DHT22;2011;48.238;13.948;2022-11-18T12:54:30;8.90;99.90
3994;DHT22;2011;48.238;13.948;2022-11-18T12:57:00;8.80;99.90
3994;DHT22;2011;48.238;13.948;2022-11-18T12:59:34;8.70;99.90
3994;DHT22;2011;48.238;13.948;2022-11-18T13:02:05;8.70;99.90
3994;DHT22;2011;48.238;13.948;2022-11-18T13:04:41;8.70;99.90
3994;DHT22;2011;48.238;13.948;2022-11-18T13:07:11;8.60;99.90
3994;DHT22;2011;48.238;13.948;2022-11-18T13:10:00;8.50;99.90
3994;DHT22;2011;48.238;13.948;2022-11-18T13:12:29;8.50;99.90
3994;DHT22;2011;48.238;13.948;2022-11-18T13:15:01;8.50;99.90
3994;DHT22;2011;48.238;13.948;2022-11-18T13:18:05;8.50;99.90
3994;DHT22;2011;48.238;13.948;2022-11-18T13:20:33;8.40;99.90
3994;DHT22;2011;48.238;13.948;2022-11-18T13:23:02;8.40;99.90
3994;DHT22;2011;48.238;13.948;2022-11-18T13:25:48;8.40;99.90
3994;DHT22;2011;48.238;13.948;2022-11-18T13:28:23;8.30;99.90
3994;DHT22;2011;48.238;13.948;2022-11-18T13:30:59;8.30;99.90
3994;DHT22;2011;48.238;13.948;2022-11-18T13:33:29;8.30;99.90
3994;DHT22;2011;48.238;13.948;2022-11-18T13:36:00;8.20;99.90
3994;DHT22;2011;48.238;13.948;2022-11-18T13:38:26;8.10;99.90
3994;DHT22;2011;48.238;13.948;2022-11-18T13:40:53;8.10;99.90
3994;DHT22;2011;48.238;13.948;2022-11-18T13:43:32;8.10;99.90
3994;DHT22;2011;48.238;13.948;2022-11-18T13:46:03;8.10;99.90
3994;DHT22;2011;48.238;13.948;2022-11-18T13:48:32;8.00;99.90
3994;DHT22;2011;48.238;13.948;2022-11-18T13:51:01;8.00;99.90
3994;DHT22;2011;48.238;13.948;2022-11-18T13:53:30;7.90;99.90
3994;DHT22;2011;48.238;13.948;2022-11-18T13:56:00;7.90;99.90
3994;DHT22;2011;48.238;13.948;2022-11-18T13:58:35;7.90;99.90
3994;DHT22;2011;48.238;13.948;2022-11-18T14:01:05;7.80;99.90
3994;DHT22;2011;48.238;13.948;2022-11-18T14:03:47;7.90;99.90
3994;DHT22;2011;48.238;13.948;2022-11-18T14:06:24;7.80;99.90
3994;DHT22;2011;48.238;13.948;2022-11-18T14:09:03;7.90;99.90
3994;DHT22;2011;48.238;13.948;2022-11-18T14:11:37;7.90;99.90
3994;DHT22;2011;48.238;13.948;2022-11-18T14:14:05;7.80;99.90
3994;DHT22;2011;48.238;13.948;2022-11-18T14:16:35;7.90;99.90
3994;DHT22;2011;48.238;13.948;2022-11-18T14:19:03;7.90;99.90
3994;DHT22;2011;48.238;13.948;2022-11-18T14:21:31;7.90;99.90
3994;DHT22;2011;48.238;13.948;2022-11-18T14:23:59;7.90;99.90
3994;DHT22;2011;48.238;13.948;2022-11-18T14:26:29;8.00;99.90
3994;DHT22;2011;48.238;13.948;2022-11-18T14:28:58;8.00;99.90
3994;DHT22;2011;48.238;13.948;2022-11-18T14:31:26;8.00;99.90
3994;DHT22;2011;48.238;13.948;2022-11-18T14:34:15;8.00;99.90
3994;DHT22;2011;48.238;13.948;2022-11-18T14:36:42;8.00;99.90
3994;DHT22;2011;48.238;13.948;2022-11-18T14:39:21;7.90;99.90
3994;DHT22;2011;48.238;13.948;2022-11-18T14:41:48;7.90;99.90
3994;DHT22;2011;48.238;13.948;2022-11-18T14:44:16;7.80;99.90
3994;DHT22;2011;48.238;13.948;2022-11-18T14:46:45;7.90;99.90
3994;DHT22;2011;48.238;13.948;2022-11-18T14:49:16;7.90;99.90
3994;DHT22;2011;48.238;13.948;2022-11-18T14:51:43;7.80;99.90
3994;DHT22;2011;48.238;13.948;2022-11-18T14:54:11;7.80;99.90
3994;DHT22;2011;48.238;13.948;2022-11-18T14:56:40;7.70;99.90
3994;DHT22;2011;48.238;13.948;2022-11-18T14:59:10;7.60;99.90
3994;DHT22;2011;48.238;13.948;2022-11-18T15:01:38;7.60;99.90
3994;DHT22;2011;48.238;13.948;2022-11-18T15:04:05;7.60;99.90
3994;DHT22;2011;48.238;13.948;2022-11-18T15:06:33;7.50;99.90
3994;DHT22;2011;48.238;13.948;2022-11-18T15:09:00;7.50;99.90
3994;DHT22;2011;48.238;13.948;2022-11-18T15:11:27;7.50;99.90
3994;DHT22;2011;48.238;13.948;2022-11-18T15:13:54;7.50;99.90
3994;DHT22;2011;48.238;13.948;2022-11-18T15:16:23;7.40;99.90
3994;DHT22;2011;48.238;13.948;2022-11-18T15:18:52;7.40;99.90
3994;DHT22;2011;48.238;13.948;2022-11-18T15:21:19;7.30;99.90
3994;DHT22;2011;48.238;13.948;2022-11-18T15:23:48;7.30;99.90
3994;DHT22;2011;48.238;13.948;2022-11-18T15:26:18;7.20;99.90
3994;DHT22;2011;48.238;13.948;2022-11-18T15:28:47;7.20;99.90
3994;DHT22;2011;48.238;13.948;2022-11-18T15:31:15;7.10;99.90
3994;DHT22;2011;48.238;13.948;2022-11-18T15:33:43;7.10;99.90
3994;DHT22;2011;48.238;13.948;2022-11-18T15:36:12;7.10;99.90
3994;DHT22;2011;48.238;13.948;2022-11-18T15:38:39;7.10;99.90
3994;DHT22;2011;48.238;13.948;2022-11-18T15:41:14;7.10;99.90
3994;DHT22;2011;48.238;13.948;2022-11-18T15:43:41;7.00;99.90
3994;DHT22;2011;48.238;13.948;2022-11-18T15:46:08;7.00;99.90
3994;DHT22;2011;48.238;13.948;2022-11-18T15:48:35;7.00;99.90
3994;DHT22;2011;48.238;13.948;2022-11-18T15:51:02;7.00;99.90
3994;DHT22;2011;48.238;13.948;2022-11-18T15:53:29;7.10;99.90
3994;DHT22;2011;48.238;13.948;2022-11-18T15:56:20;7.10;99.90
3994;DHT22;2011;48.238;13.948;2022-11-18T15:58:51;7.20;99.90
3994;DHT22;2011;48.238;13.948;2022-11-18T16:01:18;7.20;99.90
3994;DHT22;2011;48.238;13.948;2022-11-18T16:03:48;7.10;99.90
3994;DHT22;2011;48.238;13.948;2022-11-18T16:06:15;7.10;99.90
3994;DHT22;2011;48.238;13.948;2022-11-18T16:08:42;7.10;99.90
3994;DHT22;2011;48.238;13.948;2022-11-18T16:11:11;7.10;99.90
3994;DHT22;2011;48.238;13.948;2022-11-18T16:14:00;7.10;99.90
3994;DHT22;2011;48.238;13.948;2022-11-18T16:16:27;7.10;99.90
3994;DHT22;2011;48.238;13.948;2022-11-18T16:18:55;7.10;99.90
3994;DHT22;2011;48.238;13.948;2022-11-18T16:21:22;7.10;99.90
3994;DHT22;2011;48.238;13.948;2022-11-18T16:23:52;7.10;99.90
3994;DHT22;2011;48.238;13.948;2022-11-18T16:26:19;7.10;99.90
3994;DHT22;2011;48.238;13.948;2022-11-18T16:28:46;7.10;99.90
3994;DHT22;2011;48.238;13.948;2022-11-18T16:31:14;7.10;99.90
3994;DHT22;2011;48.238;13.948;2022-11-18T16:34:03;7.10;99.90